Time;durP1;ratioP1;P1;durP2;ratioP2;P2;SDS_P1;SDS_P2;PMS_P1;PMS_P2;Temp;Humidity;BMP_temperature;BMP_pressure;BME280_temperature;BME280_humidity;BME280_pressure;Samples;Min_cycle;Max_cycle;Signal;HPM_P1;HPM_P2
2020/12/01 00:02:45;;;;;;;57.63;28.90;;;7.70;99.90;;;5.76;100.00;101053.78;5072025;28;20210;-75
2020/12/01 00:05:31;;;;;;;58.20;31.23;;;7.70;99.90;;;5.78;100.00;101055.47;5054407;28;20203;-75
2020/12/01 00:08:16;;;;;;;48.87;29.37;;;7.70;99.90;;;5.76;100.00;101064.91;5054250;28;20238;-75
2020/12/01 00:11:01;;;;;;;48.67;27.57;;;7.70;99.90;;;5.79;100.00;101069.19;5055405;28;20294;-76
2020/12/01 00:13:47;;;;;;;56.90;29.87;;;7.70;99.90;;;5.77;100.00;101070.88;5061694;28;20257;-76
2020/12/01 00:16:32;;;;;;;48.23;27.27;;;7.80;99.90;;;5.73;100.00;101074.34;5069463;28;20202;-76
2020/12/01 00:19:18;;;;;;;53.13;28.73;;;7.70;99.90;;;5.76;100.00;101077.75;5072492;28;20230;-76
2020/12/01 00:22:03;;;;;;;45.70;27.77;;;7.70;99.90;;;5.78;100.00;101080.28;5064344;28;20249;-75
2020/12/01 00:24:48;;;;;;;44.27;25.20;;;7.80;99.90;;;5.78;100.00;101088.00;5067832;28;20280;-76
2020/12/01 00:27:34;;;;;;;45.13;26.37;;;7.80;99.90;;;5.84;100.00;101079.44;5064664;28;20214;-76
2020/12/01 00:30:23;;;;;;;44.20;26.30;;;7.80;99.90;;;5.82;100.00;101089.72;5071281;28;20234;-75
2020/12/01 00:33:10;;;;;;;46.07;24.97;;;7.80;99.90;;;5.80;100.00;101091.41;5056886;28;20293;-76
2020/12/01 00:35:56;;;;;;;46.63;25.23;;;7.80;99.90;;;5.80;100.00;101089.72;5071902;28;20203;-76
2020/12/01 00:38:42;;;;;;;44.73;24.77;;;7.80;99.90;;;5.80;100.00;101089.72;5060182;28;20720;-76
2020/12/01 00:41:27;;;;;;;41.83;25.20;;;7.90;99.90;;;5.79;100.00;101084.59;5058838;28;20226;-75
2020/12/01 00:44:12;;;;;;;41.50;25.77;;;7.80;99.90;;;5.77;100.00;101078.59;5062409;28;20284;-76
2020/12/01 00:46:57;;;;;;;38.93;24.47;;;7.90;99.90;;;5.77;100.00;101070.88;5056379;28;20341;-76
2020/12/01 00:49:43;;;;;;;48.20;25.07;;;7.90;99.90;;;5.77;100.00;101066.63;5053962;28;20231;-76
2020/12/01 00:52:29;;;;;;;46.37;25.03;;;7.90;99.90;;;5.79;100.00;101061.47;5060475;28;20292;-76
2020/12/01 00:55:14;;;;;;;41.13;24.77;;;7.90;99.90;;;5.83;100.00;101063.19;5072619;28;20272;-76
2020/12/01 00:57:59;;;;;;;47.77;24.37;;;7.90;99.90;;;5.82;100.00;101064.03;5073694;28;20205;-76
2020/12/01 01:00:45;;;;;;;42.80;24.07;;;7.90;99.90;;;5.87;100.00;101062.31;5071373;28;20202;-77
2020/12/01 01:03:30;;;;;;;34.17;21.00;;;7.90;99.90;;;5.89;100.00;101058.03;5071415;28;20206;-76
2020/12/01 01:06:16;;;;;;;45.23;25.50;;;7.90;99.90;;;5.92;100.00;101075.13;5053758;28;20195;-77
2020/12/01 01:09:02;;;;;;;41.53;24.23;;;7.90;99.90;;;5.94;100.00;101079.41;5068493;28;20648;-77
2020/12/01 01:11:47;;;;;;;50.67;24.43;;;8.00;99.90;;;5.92;100.00;101073.44;5063666;28;20210;-77
2020/12/01 01:14:32;;;;;;;47.40;25.13;;;8.00;99.90;;;5.93;100.00;101081.97;5056294;28;20229;-76
2020/12/01 01:17:17;;;;;;;39.00;23.57;;;8.00;99.90;;;5.97;100.00;101079.44;5059337;28;20207;-77
2020/12/01 01:20:04;;;;;;;36.47;22.10;;;8.00;99.90;;;6.11;100.00;101083.69;5058621;28;20221;-77
2020/12/01 01:22:49;;;;;;;39.33;20.50;;;8.00;99.90;;;6.14;100.00;101078.53;5054715;28;20238;-77
2020/12/01 01:25:35;;;;;;;31.47;17.00;;;8.00;99.90;;;6.18;100.00;101087.09;5068305;28;20209;-76
2020/12/01 01:28:20;;;;;;;25.83;14.37;;;8.00;99.90;;;6.19;100.00;101089.66;5054003;28;20226;-77
2020/12/01 01:31:06;;;;;;;26.27;13.40;;;8.10;99.90;;;6.18;100.00;101093.06;5071469;28;20201;-76
2020/12/01 01:33:51;;;;;;;23.47;12.47;;;8.10;99.90;;;6.15;100.00;101091.34;5060984;28;20218;-76
2020/12/01 01:36:36;;;;;;;25.37;12.77;;;8.10;99.90;;;6.14;100.00;101093.94;5060065;28;20202;-76
2020/12/01 01:39:21;;;;;;;21.60;10.83;;;8.10;99.90;;;6.10;100.00;101095.66;5055770;28;20230;-76
2020/12/01 01:42:09;;;;;;;21.57;10.87;;;8.10;99.90;;;6.09;100.00;101093.09;5059335;28;20201;-76
2020/12/01 01:44:54;;;;;;;19.67;10.50;;;8.10;99.90;;;6.07;100.00;101099.97;5066326;28;20281;-77
2020/12/01 01:47:41;;;;;;;21.97;10.80;;;8.10;99.90;;;6.07;100.00;101092.28;5065855;28;20684;-76
2020/12/01 01:50:28;;;;;;;22.93;9.73;;;8.10;99.90;;;6.08;100.00;101102.53;5060961;28;20223;-76
2020/12/01 01:53:17;;;;;;;21.13;9.67;;;8.10;99.90;;;6.08;100.00;101101.66;5067467;28;20289;-76
2020/12/01 01:56:09;;;;;;;19.10;8.63;;;8.20;99.90;;;6.09;100.00;101098.25;5052251;28;20223;-76
2020/12/01 01:58:59;;;;;;;22.93;9.63;;;8.10;99.90;;;6.09;100.00;101098.25;5060971;28;20308;-76
2020/12/01 02:01:45;;;;;;;18.57;8.37;;;8.20;99.90;;;6.04;100.00;101105.97;5070727;28;20569;-76
2020/12/01 02:04:32;;;;;;;21.23;8.50;;;8.20;99.90;;;5.93;100.00;101098.22;5064853;28;20206;-77
2020/12/01 02:07:20;;;;;;;17.00;7.33;;;8.20;99.90;;;5.86;100.00;101093.13;5064292;28;20210;-75
2020/12/01 02:10:05;;;;;;;19.00;7.30;;;8.10;99.90;;;5.69;100.00;101093.16;5068420;28;20296;-76
2020/12/01 02:12:56;;;;;;;19.10;6.93;;;8.10;99.90;;;5.52;100.00;101088.00;5070748;28;20359;-76
2020/12/01 02:15:43;;;;;;;17.27;6.37;;;8.10;99.90;;;5.49;100.00;101091.44;5058941;28;20201;-75
2020/12/01 02:18:32;;;;;;;18.00;5.70;;;8.10;99.90;;;5.37;100.00;101091.44;5071144;28;20225;-76
2020/12/01 02:21:37;;;;;;;12.67;4.63;;;8.00;99.90;;;5.30;100.00;101087.16;5070843;28;20272;-76
2020/12/01 02:24:27;;;;;;;16.63;4.97;;;8.00;99.90;;;5.29;100.00;101088.03;5052731;28;20198;-76
2020/12/01 02:27:18;;;;;;;17.43;5.10;;;7.90;99.90;;;5.15;100.00;101091.41;5068343;28;20265;-76
2020/12/01 02:30:04;;;;;;;19.70;4.67;;;7.90;99.90;;;5.02;100.00;101089.69;5059367;28;20234;-76
2020/12/01 02:32:49;;;;;;;13.33;4.20;;;7.80;99.90;;;4.97;100.00;101094.81;5071275;28;20209;-77
2020/12/01 02:35:34;;;;;;;13.90;4.20;;;7.80;99.90;;;5.01;100.00;101100.81;5069265;28;20578;-76
2020/12/01 02:38:19;;;;;;;16.47;3.83;;;7.70;99.90;;;5.03;100.00;101091.41;5060815;28;20756;-76
2020/12/01 02:41:04;;;;;;;15.30;4.23;;;7.70;99.90;;;4.95;100.00;101098.25;5064561;28;20214;-76
2020/12/01 02:43:50;;;;;;;19.40;4.43;;;7.60;99.90;;;4.97;100.00;101094.81;5077445;28;20186;-74
2020/12/01 02:46:36;;;;;;;10.37;3.43;;;7.50;99.90;;;4.88;100.00;101098.19;5062884;28;20626;-77
2020/12/01 02:49:22;;;;;;;19.50;3.80;;;7.50;99.90;;;4.96;100.00;101093.13;5058795;28;20592;-77
2020/12/01 02:52:07;;;;;;;16.23;3.40;;;7.40;99.90;;;4.94;100.00;101096.53;5053429;28;20257;-77
2020/12/01 02:54:52;;;;;;;16.33;3.93;;;7.40;99.90;;;4.84;100.00;101090.50;5057398;28;20213;-77
2020/12/01 02:57:37;;;;;;;17.67;3.90;;;7.30;99.90;;;4.78;100.00;101086.22;5070113;28;20209;-77
2020/12/01 03:00:23;;;;;;;11.47;3.30;;;7.30;99.90;;;4.71;100.00;101087.91;5070861;28;20292;-76
2020/12/01 03:03:08;;;;;;;25.70;4.47;;;7.30;99.90;;;4.77;100.00;101079.41;5068445;28;20206;-77
2020/12/01 03:05:53;;;;;;;17.07;3.40;;;7.20;99.90;;;4.79;100.00;101084.53;5071099;28;20578;-77
2020/12/01 03:08:38;;;;;;;14.83;3.30;;;7.20;99.90;;;4.84;100.00;101081.13;5059065;28;20225;-77
2020/12/01 03:11:23;;;;;;;14.77;3.17;;;7.10;99.90;;;4.81;100.00;101087.94;5067695;28;20221;-77
2020/12/01 03:14:09;;;;;;;15.73;3.37;;;7.10;99.90;;;4.71;100.00;101094.72;5061485;28;20688;-76
2020/12/01 03:16:55;;;;;;;13.53;2.83;;;7.10;99.90;;;4.63;100.00;101096.44;5055993;28;20332;-77
2020/12/01 03:19:40;;;;;;;23.17;3.80;;;7.10;99.90;;;4.66;100.00;101081.06;5056779;28;20721;-76
2020/12/01 03:22:25;;;;;;;17.63;3.20;;;7.00;99.90;;;4.59;100.00;101087.03;5070685;28;20198;-77
2020/12/01 03:25:10;;;;;;;18.63;3.70;;;7.00;99.90;;;4.59;100.00;101089.56;5071503;28;20205;-77
2020/12/01 03:27:55;;;;;;;25.03;3.87;;;6.90;99.90;;;4.53;100.00;101086.16;5071434;28;20293;-77
2020/12/01 03:30:40;;;;;;;16.90;3.43;;;6.90;99.90;;;4.32;100.00;101091.19;5066557;28;20207;-77
2020/12/01 03:33:27;;;;;;;15.57;3.30;;;6.90;99.90;;;4.38;100.00;101091.22;5060334;28;20272;-77
2020/12/01 03:36:13;;;;;;;21.77;3.73;;;6.80;99.90;;;4.26;100.00;101093.72;5067724;28;20206;-77
2020/12/01 03:38:58;;;;;;;25.97;3.83;;;6.80;99.90;;;4.15;100.00;101091.09;5060200;28;20238;-77
2020/12/01 03:41:43;;;;;;;19.20;4.40;;;6.80;99.90;;;4.43;100.00;101088.66;5058579;28;20612;-75
2020/12/01 03:44:29;;;;;;;22.00;4.30;;;6.70;99.90;;;4.60;100.00;101087.03;5058007;28;20226;-77
2020/12/01 03:47:14;;;;;;;28.60;5.47;;;6.70;99.90;;;4.55;100.00;101094.69;5059040;28;20576;-77
2020/12/01 03:50:00;;;;;;;31.87;4.03;;;6.50;99.90;;;4.47;100.00;101086.13;5064789;28;20299;-77
2020/12/01 03:52:45;;;;;;;20.33;4.17;;;6.60;99.90;;;4.67;100.00;101098.16;5056415;28;20261;-77
2020/12/01 03:55:30;;;;;;;29.10;4.73;;;6.60;99.90;;;4.61;100.00;101098.16;5062153;28;20202;-77
2020/12/01 03:58:15;;;;;;;22.47;4.30;;;6.60;99.90;;;4.85;100.00;101087.09;5066554;28;20227;-76
2020/12/01 04:01:01;;;;;;;25.00;4.97;;;6.50;99.90;;;4.92;100.00;101087.09;5059175;28;20323;-76
2020/12/01 04:03:46;;;;;;;31.83;4.50;;;6.50;99.90;;;5.10;100.00;101080.31;5056933;28;20211;-77
2020/12/01 04:06:31;;;;;;;24.53;4.23;;;6.50;99.90;;;5.14;100.00;101092.28;5058690;28;20273;-77
2020/12/01 04:09:17;;;;;;;18.47;3.63;;;6.60;99.90;;;5.26;100.00;101089.72;5072618;28;20242;-77
2020/12/01 04:12:02;;;;;;;22.77;4.90;;;6.60;99.90;;;5.10;100.00;101081.16;5059012;28;20258;-76
2020/12/01 04:14:47;;;;;;;25.07;4.40;;;6.60;99.90;;;5.12;100.00;101083.72;5064067;28;20565;-77
2020/12/01 04:17:32;;;;;;;27.53;3.67;;;6.70;99.90;;;5.04;100.00;101085.44;5061653;28;20210;-77
2020/12/01 04:20:18;;;;;;;23.00;4.97;;;6.70;99.90;;;5.18;100.00;101088.88;5065304;28;20215;-77
2020/12/01 04:23:04;;;;;;;25.67;4.60;;;6.80;99.90;;;5.32;100.00;101082.91;5056276;28;20249;-77
2020/12/01 04:25:49;;;;;;;30.37;4.53;;;6.80;99.90;;;5.31;100.00;101082.03;5060914;28;20214;-77
2020/12/01 04:28:34;;;;;;;20.83;3.80;;;6.80;99.90;;;5.42;100.00;101087.19;5074540;28;20214;-76
2020/12/01 04:31:19;;;;;;;27.50;3.83;;;6.80;99.90;;;5.44;100.00;101085.47;5060797;28;20222;-77
2020/12/01 04:34:04;;;;;;;20.90;3.60;;;6.90;99.90;;;5.57;100.00;101087.16;5061147;28;20202;-77
2020/12/01 04:36:50;;;;;;;26.30;4.20;;;6.90;99.90;;;5.56;100.00;101095.72;5057560;28;20209;-77
2020/12/01 04:39:36;;;;;;;22.67;4.20;;;7.00;99.90;;;5.58;100.00;101085.44;5067523;28;20230;-77
2020/12/01 04:42:22;;;;;;;22.70;4.13;;;7.00;99.90;;;5.53;100.00;101082.03;5061918;28;20210;-77
2020/12/01 04:45:12;;;;;;;23.60;3.87;;;7.10;99.90;;;5.55;100.00;101091.44;5060569;28;20577;-77
2020/12/01 04:48:05;;;;;;;23.30;4.13;;;7.10;99.90;;;5.52;100.00;101090.59;5053726;28;20714;-77
2020/12/01 04:51:01;;;;;;;23.20;3.60;;;7.10;99.90;;;5.51;100.00;101089.75;5068309;28;20202;-77
2020/12/01 04:54:21;;;;;;;23.93;3.57;;;7.20;99.90;;;5.57;100.00;101097.44;5063562;28;20333;-76
2020/12/01 04:57:47;;;;;;;22.03;3.67;;;7.20;99.90;;;5.55;100.00;101096.59;5062423;28;20584;-77
2020/12/01 05:00:41;;;;;;;15.17;3.73;;;7.20;99.90;;;5.53;100.00;101093.16;5062515;28;20585;-77
2020/12/01 05:03:47;;;;;;;16.43;3.83;;;7.20;99.90;;;5.51;100.00;101096.59;5065467;28;20206;-77
2020/12/01 05:06:56;;;;;;;19.37;4.23;;;7.30;99.90;;;5.52;100.00;101099.16;5057583;28;20769;-78
2020/12/01 05:09:46;;;;;;;19.70;3.70;;;7.30;99.90;;;5.51;100.00;101094.88;5055044;28;20218;-77
2020/12/01 05:12:36;;;;;;;18.47;3.00;;;7.30;99.90;;;5.56;100.00;101100.00;5063697;28;20219;-76
2020/12/01 05:15:27;;;;;;;22.87;3.60;;;7.40;99.90;;;5.51;100.00;101100.00;5053888;28;20202;-77
2020/12/01 05:18:18;;;;;;;10.60;3.20;;;7.40;99.90;;;5.47;100.00;101108.53;5058275;28;20233;-78
2020/12/01 05:21:05;;;;;;;16.53;3.83;;;7.40;99.90;;;5.52;100.00;101111.97;5059496;28;20722;-77
2020/12/01 05:23:52;;;;;;;16.77;4.03;;;7.40;99.90;;;5.56;100.00;101117.97;5058148;28;20613;-75
2020/12/01 05:26:39;;;;;;;14.57;3.60;;;7.40;99.90;;;5.57;100.00;101115.38;5069123;28;20244;-78
2020/12/01 05:29:26;;;;;;;17.80;3.70;;;7.50;99.90;;;5.57;100.00;101125.66;5071629;28;20229;-74
2020/12/01 05:32:12;;;;;;;16.17;4.00;;;7.50;99.90;;;5.57;100.00;101117.97;5089539;28;20186;-77
2020/12/01 05:35:15;;;;;;;13.47;3.90;;;7.50;99.90;;;5.62;100.00;101138.47;5058427;28;20221;-78
2020/12/01 05:38:05;;;;;;;21.13;4.30;;;7.50;99.90;;;5.63;100.00;101130.78;5065146;28;20585;-77
2020/12/01 05:40:54;;;;;;;17.50;4.60;;;7.50;99.90;;;5.65;100.00;101132.50;5060837;28;20206;-77
2020/12/01 05:43:39;;;;;;;16.27;3.73;;;7.50;99.90;;;5.63;100.00;101133.34;5056808;28;20592;-79
2020/12/01 05:46:41;;;;;;;14.60;3.77;;;7.50;99.90;;;5.63;100.00;101138.47;5065461;28;20199;-79
2020/12/01 05:49:42;;;;;;;17.30;3.63;;;7.60;99.90;;;5.61;100.00;101134.22;5059903;28;20234;-77
2020/12/01 05:52:31;;;;;;;12.77;3.33;;;7.60;99.90;;;5.62;100.00;101139.34;5059534;28;20826;-79
2020/12/01 05:55:21;;;;;;;13.53;3.80;;;7.60;99.90;;;5.60;100.00;101129.94;5057408;28;20280;-79
2020/12/01 05:58:11;;;;;;;13.53;3.90;;;7.60;99.90;;;5.56;100.00;101133.34;5058416;28;20553;-78
2020/12/01 06:01:00;;;;;;;16.03;4.10;;;7.60;99.90;;;5.57;100.00;101130.78;5057810;28;20203;-78
2020/12/01 06:04:07;;;;;;;18.70;3.87;;;7.60;99.90;;;5.63;100.00;101138.47;5061777;28;20199;-78
2020/12/01 06:07:11;;;;;;;16.47;4.20;;;7.60;99.90;;;5.62;100.00;101128.22;5059061;28;20203;-80
2020/12/01 06:10:32;;;;;;;19.10;4.63;;;7.60;99.90;;;5.65;100.00;101135.91;5058686;28;20233;-77
2020/12/01 06:13:35;;;;;;;14.17;4.50;;;7.70;99.90;;;5.66;100.00;101145.34;5056734;28;20745;-79
2020/12/01 06:16:39;;;;;;;21.73;5.80;;;7.60;99.90;;;5.59;100.00;101144.47;5069850;28;20225;-77
2020/12/01 06:19:34;;;;;;;15.10;4.67;;;7.60;99.90;;;5.60;100.00;101148.75;5062858;28;20222;-79
2020/12/01 06:23:22;;;;;;;14.87;3.97;;;7.60;99.90;;;5.69;100.00;101150.47;5057457;28;20203;-79
2020/12/01 06:26:58;;;;;;;23.00;4.70;;;7.60;99.90;;;5.70;100.00;101146.16;5055447;28;20568;-78
2020/12/01 06:30:18;;;;;;;18.47;5.87;;;7.70;99.90;;;5.72;100.00;101154.75;5057448;28;20250;-78
2020/12/01 06:33:41;;;;;;;15.53;5.40;;;7.70;99.90;;;5.76;100.00;101156.47;5062696;28;20202;-77
2020/12/01 06:37:12;;;;;;;16.83;6.73;;;7.70;99.90;;;5.83;100.00;101160.75;5074681;28;20778;-78
2020/12/01 06:40:26;;;;;;;15.33;6.77;;;7.60;99.90;;;5.85;100.00;101158.19;5069911;28;20601;-77
2020/12/01 06:43:18;;;;;;;19.40;8.53;;;7.60;99.90;;;5.88;100.00;101169.28;5063609;28;20733;-77
2020/12/01 06:46:25;;;;;;;20.83;8.40;;;7.70;99.90;;;5.87;100.00;101169.28;5063024;28;20210;-78
2020/12/01 06:49:17;;;;;;;27.00;8.53;;;7.70;99.90;;;5.89;100.00;101171.00;5067433;28;20273;-78
2020/12/01 06:52:10;;;;;;;24.00;8.50;;;7.70;99.90;;;5.91;100.00;101171.84;5070301;28;20276;-78
2020/12/01 06:54:58;;;;;;;22.00;9.27;;;7.70;99.90;;;5.93;100.00;101182.13;5061352;28;20203;-78
2020/12/01 06:57:43;;;;;;;20.40;9.80;;;7.80;99.90;;;5.96;100.00;101179.53;5073073;28;20233;-77
2020/12/01 07:00:28;;;;;;;17.60;9.60;;;7.80;99.90;;;5.97;100.00;101189.84;5068202;28;20214;-78
2020/12/01 07:03:24;;;;;;;24.27;9.43;;;7.80;99.90;;;5.97;100.00;101192.41;5069893;28;20203;-78
2020/12/01 07:06:17;;;;;;;29.70;16.70;;;7.80;99.90;;;5.97;100.00;101201.84;5070767;28;20194;-79
2020/12/01 07:09:07;;;;;;;26.20;13.33;;;7.90;99.90;;;5.96;100.00;101195.81;5067367;28;20225;-79
2020/12/01 07:12:23;;;;;;;24.97;10.47;;;7.90;99.90;;;5.99;100.00;101209.53;5063019;28;20222;-78
2020/12/01 07:15:18;;;;;;;25.17;10.67;;;7.90;99.90;;;6.04;100.00;101207.81;5066286;28;20305;-78
2020/12/01 07:18:14;;;;;;;23.77;10.77;;;7.90;99.90;;;6.05;100.00;101209.53;5068464;28;20194;-78
2020/12/01 07:21:38;;;;;;;25.43;11.70;;;7.90;99.90;;;6.07;100.00;101215.53;5062280;28;20314;-78
2020/12/01 07:24:43;;;;;;;22.57;11.30;;;8.00;99.90;;;6.06;100.00;101217.25;5059320;28;20229;-78
2020/12/01 07:27:34;;;;;;;24.70;11.70;;;8.00;99.90;;;6.06;100.00;101221.53;5069464;28;20205;-77
2020/12/01 07:30:24;;;;;;;26.47;11.00;;;7.90;99.90;;;6.09;100.00;101219.81;5057404;28;20225;-78
2020/12/01 07:33:16;;;;;;;27.83;11.60;;;8.00;99.90;;;6.11;100.00;101224.94;5056341;28;20206;-78
2020/12/01 07:36:22;;;;;;;24.67;10.90;;;8.00;99.90;;;6.12;100.00;101230.06;5059286;28;20214;-78
2020/12/01 07:39:16;;;;;;;21.10;10.23;;;8.00;99.90;;;6.17;100.00;101230.09;5074121;28;20225;-78
2020/12/01 07:42:06;;;;;;;24.90;11.50;;;8.00;99.90;;;6.19;100.00;101236.06;5057112;28;20211;-78
2020/12/01 07:44:50;;;;;;;22.07;10.23;;;8.10;99.90;;;6.28;100.00;101240.34;5058177;28;20571;-78
2020/12/01 07:47:36;;;;;;;22.43;11.00;;;8.10;99.90;;;6.37;100.00;101242.06;5059457;28;20277;-78
2020/12/01 07:50:21;;;;;;;23.30;9.90;;;8.10;99.90;;;6.50;100.00;101241.19;5067871;28;20306;-79
2020/12/01 07:53:10;;;;;;;21.63;10.00;;;8.10;99.90;;;6.62;100.00;101242.88;5073366;28;20735;-79
2020/12/01 07:56:04;;;;;;;18.80;8.37;;;8.20;99.90;;;6.71;100.00;101249.69;5070641;28;20214;-78
2020/12/01 07:59:12;;;;;;;20.80;7.90;;;8.20;99.90;;;6.76;100.00;101255.66;5060465;28;20266;-77
2020/12/01 08:02:05;;;;;;;17.87;6.63;;;8.30;99.90;;;6.85;100.00;101256.50;5056692;28;20210;-78
2020/12/01 08:05:05;;;;;;;12.83;5.73;;;8.30;99.90;;;6.90;100.00;101266.78;5056513;28;20214;-78
2020/12/01 08:07:55;;;;;;;12.00;4.70;;;8.40;99.90;;;6.94;100.00;101265.91;5059056;28;20288;-78
2020/12/01 08:10:41;;;;;;;11.60;3.97;;;8.40;99.90;;;6.99;100.00;101269.31;5067635;28;20608;-78
2020/12/01 08:13:26;;;;;;;9.00;3.63;;;8.40;99.90;;;7.01;100.00;101271.88;5068768;28;20213;-78
2020/12/01 08:16:17;;;;;;;6.43;3.17;;;8.50;99.90;;;7.01;100.00;101275.34;5076166;28;20713;-78
2020/12/01 08:19:04;;;;;;;11.43;3.27;;;8.60;99.90;;;7.02;100.00;101276.16;5058745;28;20230;-78
2020/12/01 08:21:50;;;;;;;6.90;3.23;;;8.60;99.90;;;7.06;100.00;101279.56;5067832;28;20228;-78
2020/12/01 08:24:39;;;;;;;10.27;3.57;;;8.60;99.90;;;7.06;100.00;101290.75;5059736;28;20301;-78
2020/12/01 08:27:36;;;;;;;12.80;2.70;;;8.70;99.90;;;7.07;100.00;101286.44;5068922;28;20560;-78
2020/12/01 08:30:38;;;;;;;14.97;3.10;;;8.70;99.90;;;7.07;100.00;101297.59;5061152;28;20191;-76
2020/12/01 08:33:43;;;;;;;25.47;2.97;;;8.80;99.90;;;7.08;100.00;101295.88;5069461;28;20202;-75
2020/12/01 08:36:50;;;;;;;19.73;3.40;;;8.80;99.90;;;7.09;100.00;101306.16;5065434;28;20202;-75
2020/12/01 08:39:50;;;;;;;17.50;3.60;;;8.80;99.90;;;7.09;100.00;101313.03;5056641;28;20629;-76
2020/12/01 08:42:57;;;;;;;27.57;4.73;;;8.80;99.90;;;7.11;100.00;101313.88;5053530;28;20227;-76
2020/12/01 08:45:53;;;;;;;30.77;4.90;;;8.90;99.90;;;7.09;100.00;101316.47;5064202;28;20198;-76
2020/12/01 08:48:47;;;;;;;29.40;4.67;;;8.90;99.90;;;7.07;100.00;101331.06;5057057;28;20317;-76
2020/12/01 08:51:48;;;;;;;22.07;4.80;;;8.90;99.90;;;7.04;100.00;101331.03;5053644;28;20586;-76
2020/12/01 08:54:36;;;;;;;29.43;5.27;;;8.90;99.90;;;7.02;100.00;101333.59;5053212;28;20202;-76
2020/12/01 08:57:32;;;;;;;23.07;4.90;;;9.00;99.90;;;7.03;100.00;101339.63;5064096;28;20218;-76
2020/12/01 09:00:19;;;;;;;34.37;5.70;;;9.00;99.90;;;7.01;100.00;101344.78;5068867;28;20226;-76
2020/12/01 09:03:10;;;;;;;35.97;6.17;;;9.00;99.90;;;7.02;100.00;101348.19;5054184;28;20202;-75
2020/12/01 09:05:58;;;;;;;26.47;5.60;;;9.00;99.90;;;7.03;100.00;101352.50;5055692;28;20677;-76
2020/12/01 09:08:55;;;;;;;24.27;4.83;;;9.00;99.90;;;7.05;100.00;101350.75;5069764;28;20637;-76
2020/12/01 09:12:05;;;;;;;31.33;5.83;;;9.10;99.90;;;7.10;100.00;101358.47;5055516;28;20206;-75
2020/12/01 09:18:02;;;;;;;31.60;4.80;;;9.10;99.90;;;7.06;100.00;101362.78;5066291;28;20226;-76
2020/12/01 09:21:02;;;;;;;32.17;5.80;;;9.10;99.90;;;7.13;100.00;101358.44;5066030;28;20221;-76
2020/12/01 09:24:00;;;;;;;29.33;6.17;;;9.10;99.90;;;7.19;100.00;101369.59;5052179;28;20245;-76
2020/12/01 09:26:45;;;;;;;28.33;5.63;;;9.10;99.90;;;7.19;100.00;101377.31;5071806;28;20229;-75
2020/12/01 09:29:30;;;;;;;32.50;6.70;;;9.10;99.90;;;7.16;100.00;101371.31;5058788;28;20285;-76
2020/12/01 09:32:20;;;;;;;34.83;5.97;;;9.20;99.90;;;7.18;100.00;101385.03;5055347;28;20211;-75
2020/12/01 09:35:08;;;;;;;28.13;6.20;;;9.20;99.90;;;7.18;100.00;101387.63;5056229;28;20666;-76
2020/12/01 09:37:53;;;;;;;34.83;5.77;;;9.20;99.90;;;7.18;100.00;101382.47;5059965;28;20268;-75
2020/12/01 09:40:40;;;;;;;30.70;5.30;;;9.20;99.90;;;7.21;100.00;101392.75;5060462;28;20235;-76
2020/12/01 09:43:30;;;;;;;34.53;5.73;;;9.30;99.90;;;7.27;100.00;101390.16;5052575;28;20677;-75
2020/12/01 09:46:16;;;;;;;33.13;5.80;;;9.30;99.90;;;7.26;100.00;101391.00;5055688;28;20223;-76
2020/12/01 09:49:02;;;;;;;36.83;6.10;;;9.30;99.90;;;7.32;100.00;101392.72;5057003;28;20228;-76
2020/12/01 09:51:53;;;;;;;34.33;5.83;;;9.30;99.90;;;7.34;100.00;101398.72;5071196;28;20209;-76
2020/12/01 09:54:44;;;;;;;42.87;6.97;;;9.30;99.90;;;7.33;100.00;101397.84;5053345;28;20199;-76
2020/12/01 09:57:41;;;;;;;29.47;5.67;;;9.40;99.90;;;7.44;100.00;101399.53;5063445;28;20272;-76
2020/12/01 10:00:45;;;;;;;32.20;5.50;;;9.40;99.90;;;7.48;100.00;101403.81;5061087;28;20219;-76
2020/12/01 10:09:46;;;;;;;29.87;4.73;;;9.50;99.90;;;7.79;100.00;101401.13;5054852;28;20733;-77
2020/12/01 10:12:45;;;;;;;36.60;6.43;;;9.50;99.90;;;7.89;100.00;101401.06;5061129;28;20280;-77
2020/12/01 10:34:19;;;;;;;33.33;5.87;;;9.90;99.90;;;7.98;100.00;101420.78;5066514;28;20197;-78
2020/12/01 10:37:04;;;;;;;30.00;5.07;;;9.90;99.90;;;8.04;100.00;101418.16;5087916;28;20252;-76
2020/12/01 10:39:49;;;;;;;34.83;5.50;;;9.90;99.90;;;8.04;100.00;101417.31;5070754;28;20233;-78
2020/12/01 10:42:35;;;;;;;29.13;5.47;;;10.00;99.90;;;7.98;100.00;101420.78;5061856;28;20218;-77
2020/12/01 10:45:23;;;;;;;24.73;5.83;;;10.00;99.90;;;7.99;100.00;101424.22;5062579;28;20206;-78
2020/12/01 10:48:08;;;;;;;31.27;5.73;;;10.00;99.90;;;8.00;100.00;101421.66;5060064;28;20234;-77
2020/12/01 10:50:53;;;;;;;32.90;5.07;;;10.10;99.90;;;7.99;100.00;101419.94;5061650;28;20577;-78
2020/12/01 10:53:39;;;;;;;28.83;4.40;;;10.10;99.90;;;7.97;100.00;101421.66;5066262;28;20210;-77
2020/12/01 10:56:24;;;;;;;23.07;4.60;;;10.10;99.90;;;8.02;100.00;101417.34;5055174;28;20210;-78
2020/12/01 10:59:09;;;;;;;29.73;4.83;;;10.10;99.90;;;8.07;100.00;101419.88;5070196;28;20226;-78
2020/12/01 11:01:55;;;;;;;31.57;6.87;;;10.10;99.90;;;8.10;100.00;101417.28;5069444;28;20291;-78
2020/12/01 11:04:41;;;;;;;26.83;5.30;;;10.20;99.90;;;8.08;100.00;101424.19;5061935;28;20230;-78
2020/12/01 11:07:26;;;;;;;32.20;5.27;;;10.20;99.90;;;8.03;100.00;101421.63;5068423;28;20210;-78
2020/12/01 11:10:11;;;;;;;24.27;5.83;;;10.20;99.90;;;8.07;100.00;101422.47;5055860;28;20296;-78
2020/12/01 11:12:56;;;;;;;37.30;5.53;;;10.30;99.90;;;8.06;100.00;101425.88;5060802;28;20207;-78
2020/12/01 11:15:41;;;;;;;22.33;4.53;;;10.30;99.90;;;8.07;100.00;101425.03;5068561;28;20221;-78
2020/12/01 11:18:27;;;;;;;27.60;4.87;;;10.30;99.90;;;8.13;100.00;101431.88;5068546;28;20238;-78
2020/12/01 11:21:13;;;;;;;23.67;4.70;;;10.40;99.90;;;8.19;100.00;101431.84;5057636;28;20214;-78
2020/12/01 11:23:58;;;;;;;40.20;4.97;;;10.40;99.90;;;8.26;100.00;101431.78;5065181;28;20202;-78
2020/12/01 11:26:43;;;;;;;24.60;5.60;;;10.40;99.90;;;8.32;100.00;101438.63;5068465;28;20752;-78
2020/12/01 11:29:28;;;;;;;23.83;4.57;;;10.40;99.90;;;8.35;100.00;101437.75;5069095;28;20229;-78
2020/12/01 11:32:14;;;;;;;26.97;5.10;;;10.40;99.90;;;8.38;100.00;101446.31;5055404;28;20210;-78
2020/12/01 11:34:59;;;;;;;26.53;4.93;;;10.50;99.90;;;8.41;100.00;101453.19;5054212;28;20203;-76
2020/12/01 11:37:45;;;;;;;26.20;4.50;;;10.50;99.90;;;8.39;100.00;101450.63;5073930;28;20339;-78
2020/12/01 11:40:30;;;;;;;33.43;4.27;;;10.50;99.90;;;8.51;100.00;101454.03;5063964;28;20218;-78
2020/12/01 11:43:15;;;;;;;23.60;4.37;;;10.60;99.90;;;8.58;100.00;101450.53;5063737;28;20278;-78
2020/12/01 11:46:01;;;;;;;28.83;5.17;;;10.60;99.90;;;8.57;100.00;101453.97;5070786;28;20213;-78
2020/12/01 11:48:46;;;;;;;24.30;4.20;;;10.60;99.90;;;8.47;100.00;101462.66;5071005;28;20241;-77
2020/12/01 11:51:35;;;;;;;27.17;5.50;;;10.60;99.90;;;8.51;100.00;101454.03;5067611;28;20229;-78
2020/12/01 11:54:21;;;;;;;27.77;4.57;;;10.60;99.90;;;8.57;100.00;101466.88;5074234;28;20219;-76
2020/12/01 11:57:06;;;;;;;24.17;4.47;;;10.70;99.90;;;8.57;100.00;101456.56;5069865;28;20225;-78
2020/12/01 11:59:51;;;;;;;26.03;4.57;;;10.70;99.90;;;8.54;100.00;101461.75;5062645;28;20583;-78
2020/12/01 12:02:37;;;;;;;21.23;4.50;;;10.70;99.90;;;8.58;100.00;101460.88;5063303;28;20198;-78
2020/12/01 12:05:22;;;;;;;17.40;3.50;;;10.70;99.90;;;8.55;100.00;101466.03;5067468;28;20206;-78
2020/12/01 12:08:07;;;;;;;20.60;3.87;;;10.80;99.90;;;8.54;100.00;101464.31;5076234;28;20664;-78
2020/12/01 12:10:53;;;;;;;17.70;3.83;;;10.80;99.90;;;8.57;100.00;101466.88;5062511;28;20623;-78
2020/12/01 12:13:38;;;;;;;24.80;5.70;;;10.80;99.90;;;8.53;100.00;101467.75;5070206;28;20203;-78
2020/12/01 12:16:23;;;;;;;21.47;4.03;;;10.80;99.90;;;8.53;100.00;101466.06;5057321;28;20221;-78